sensor_id;sensor_type;location;lat;lon;timestamp;P1;durP1;ratioP1;P2;durP2;ratioP2
15488;SDS011;7846;48.830;9.116;2022-09-09T00:00:11;1.67;;;1.17;;
15488;SDS011;7846;48.830;9.116;2022-09-09T00:02:38;1.90;;;1.10;;
15488;SDS011;7846;48.830;9.116;2022-09-09T00:05:12;2.00;;;1.00;;
15488;SDS011;7846;48.830;9.116;2022-09-09T00:07:47;2.93;;;1.30;;
15488;SDS011;7846;48.830;9.116;2022-09-09T00:12:57;4.40;;;1.10;;
15488;SDS011;7846;48.830;9.116;2022-09-09T00:15:47;1.57;;;1.00;;
15488;SDS011;7846;48.830;9.116;2022-09-09T00:21:05;4.47;;;1.10;;
15488;SDS011;7846;48.830;9.116;2022-09-09T00:23:38;2.70;;;0.93;;
15488;SDS011;7846;48.830;9.116;2022-09-09T00:31:33;5.67;;;1.00;;
15488;SDS011;7846;48.830;9.116;2022-09-09T00:36:39;2.90;;;1.00;;
15488;SDS011;7846;48.830;9.116;2022-09-09T00:39:55;1.93;;;0.97;;
15488;SDS011;7846;48.830;9.116;2022-09-09T00:47:37;3.17;;;0.87;;
15488;SDS011;7846;48.830;9.116;2022-09-09T00:50:17;3.00;;;1.20;;
15488;SDS011;7846;48.830;9.116;2022-09-09T00:53:02;1.93;;;0.97;;
15488;SDS011;7846;48.830;9.116;2022-09-09T00:58:11;2.67;;;1.07;;
15488;SDS011;7846;48.830;9.116;2022-09-09T01:00:44;2.63;;;1.10;;
15488;SDS011;7846;48.830;9.116;2022-09-09T01:03:18;1.20;;;0.97;;
15488;SDS011;7846;48.830;9.116;2022-09-09T01:11:17;1.27;;;0.90;;
15488;SDS011;7846;48.830;9.116;2022-09-09T01:13:47;1.50;;;0.93;;
15488;SDS011;7846;48.830;9.116;2022-09-09T01:16:18;1.97;;;1.10;;
15488;SDS011;7846;48.830;9.116;2022-09-09T01:18:44;4.23;;;1.03;;
15488;SDS011;7846;48.830;9.116;2022-09-09T01:24:38;4.27;;;1.10;;
15488;SDS011;7846;48.830;9.116;2022-09-09T01:27:13;2.60;;;1.00;;
15488;SDS011;7846;48.830;9.116;2022-09-09T01:29:45;3.53;;;1.10;;
15488;SDS011;7846;48.830;9.116;2022-09-09T01:35:06;2.70;;;1.00;;
15488;SDS011;7846;48.830;9.116;2022-09-09T01:37:50;3.07;;;1.10;;
15488;SDS011;7846;48.830;9.116;2022-09-09T01:40:16;2.37;;;1.00;;
15488;SDS011;7846;48.830;9.116;2022-09-09T01:42:43;2.50;;;1.00;;
15488;SDS011;7846;48.830;9.116;2022-09-09T01:45:09;2.83;;;1.00;;
15488;SDS011;7846;48.830;9.116;2022-09-09T01:47:35;4.43;;;1.10;;
15488;SDS011;7846;48.830;9.116;2022-09-09T01:50:04;2.40;;;1.00;;
15488;SDS011;7846;48.830;9.116;2022-09-09T01:52:33;2.30;;;1.07;;
15488;SDS011;7846;48.830;9.116;2022-09-09T01:55:01;3.50;;;1.17;;
15488;SDS011;7846;48.830;9.116;2022-09-09T01:57:27;2.70;;;0.90;;
15488;SDS011;7846;48.830;9.116;2022-09-09T02:00:06;2.07;;;1.20;;
15488;SDS011;7846;48.830;9.116;2022-09-09T02:02:55;3.27;;;1.00;;
15488;SDS011;7846;48.830;9.116;2022-09-09T02:05:48;2.47;;;1.10;;
15488;SDS011;7846;48.830;9.116;2022-09-09T02:08:29;2.23;;;1.20;;
15488;SDS011;7846;48.830;9.116;2022-09-09T02:11:11;1.10;;;1.00;;
15488;SDS011;7846;48.830;9.116;2022-09-09T02:13:39;4.23;;;1.20;;
15488;SDS011;7846;48.830;9.116;2022-09-09T02:18:57;1.27;;;1.10;;
15488;SDS011;7846;48.830;9.116;2022-09-09T02:21:29;2.37;;;1.00;;
15488;SDS011;7846;48.830;9.116;2022-09-09T02:23:58;1.93;;;1.00;;
15488;SDS011;7846;48.830;9.116;2022-09-09T02:26:29;3.63;;;1.33;;
15488;SDS011;7846;48.830;9.116;2022-09-09T02:29:01;3.70;;;1.00;;
15488;SDS011;7846;48.830;9.116;2022-09-09T02:31:28;1.70;;;1.00;;
15488;SDS011;7846;48.830;9.116;2022-09-09T02:33:57;3.30;;;1.17;;
15488;SDS011;7846;48.830;9.116;2022-09-09T02:36:27;1.93;;;0.80;;
15488;SDS011;7846;48.830;9.116;2022-09-09T02:38:59;4.80;;;1.00;;
15488;SDS011;7846;48.830;9.116;2022-09-09T02:41:28;2.70;;;1.27;;
15488;SDS011;7846;48.830;9.116;2022-09-09T02:43:57;3.97;;;1.03;;
15488;SDS011;7846;48.830;9.116;2022-09-09T02:46:29;3.23;;;1.03;;
15488;SDS011;7846;48.830;9.116;2022-09-09T02:52:04;5.43;;;1.07;;
15488;SDS011;7846;48.830;9.116;2022-09-09T02:54:40;3.10;;;1.10;;
15488;SDS011;7846;48.830;9.116;2022-09-09T02:57:11;1.57;;;0.90;;
15488;SDS011;7846;48.830;9.116;2022-09-09T02:59:40;2.20;;;0.90;;
15488;SDS011;7846;48.830;9.116;2022-09-09T03:02:06;5.13;;;1.10;;
15488;SDS011;7846;48.830;9.116;2022-09-09T03:04:32;1.47;;;0.90;;
15488;SDS011;7846;48.830;9.116;2022-09-09T03:06:58;4.17;;;1.00;;
15488;SDS011;7846;48.830;9.116;2022-09-09T03:09:25;4.20;;;1.03;;
15488;SDS011;7846;48.830;9.116;2022-09-09T03:11:54;1.27;;;0.73;;
15488;SDS011;7846;48.830;9.116;2022-09-09T03:14:21;4.10;;;0.90;;
15488;SDS011;7846;48.830;9.116;2022-09-09T03:16:53;3.43;;;0.80;;
15488;SDS011;7846;48.830;9.116;2022-09-09T03:19:19;0.90;;;0.67;;
15488;SDS011;7846;48.830;9.116;2022-09-09T03:21:46;1.67;;;0.87;;
15488;SDS011;7846;48.830;9.116;2022-09-09T03:24:16;0.97;;;0.77;;
15488;SDS011;7846;48.830;9.116;2022-09-09T03:26:41;2.93;;;0.90;;
15488;SDS011;7846;48.830;9.116;2022-09-09T03:29:13;2.67;;;1.17;;
15488;SDS011;7846;48.830;9.116;2022-09-09T03:31:39;4.17;;;0.93;;
15488;SDS011;7846;48.830;9.116;2022-09-09T03:34:05;1.97;;;0.93;;
15488;SDS011;7846;48.830;9.116;2022-09-09T03:36:31;2.70;;;1.00;;
15488;SDS011;7846;48.830;9.116;2022-09-09T03:38:57;2.90;;;0.80;;
15488;SDS011;7846;48.830;9.116;2022-09-09T03:41:23;3.13;;;0.90;;
15488;SDS011;7846;48.830;9.116;2022-09-09T03:43:51;0.97;;;0.80;;
15488;SDS011;7846;48.830;9.116;2022-09-09T03:46:18;1.77;;;0.90;;
15488;SDS011;7846;48.830;9.116;2022-09-09T03:48:45;3.13;;;1.00;;
15488;SDS011;7846;48.830;9.116;2022-09-09T03:51:11;3.43;;;0.90;;
15488;SDS011;7846;48.830;9.116;2022-09-09T03:53:38;2.70;;;0.80;;
15488;SDS011;7846;48.830;9.116;2022-09-09T03:56:04;1.97;;;0.97;;
15488;SDS011;7846;48.830;9.116;2022-09-09T03:58:31;2.57;;;0.70;;
15488;SDS011;7846;48.830;9.116;2022-09-09T04:01:03;3.37;;;0.87;;
15488;SDS011;7846;48.830;9.116;2022-09-09T04:03:31;2.40;;;0.83;;
15488;SDS011;7846;48.830;9.116;2022-09-09T04:05:57;1.03;;;0.60;;
15488;SDS011;7846;48.830;9.116;2022-09-09T04:08:28;1.87;;;0.70;;
15488;SDS011;7846;48.830;9.116;2022-09-09T04:10:57;2.33;;;0.90;;
15488;SDS011;7846;48.830;9.116;2022-09-09T04:13:30;2.10;;;0.90;;
15488;SDS011;7846;48.830;9.116;2022-09-09T04:15:56;1.57;;;0.83;;
15488;SDS011;7846;48.830;9.116;2022-09-09T04:18:24;2.90;;;0.80;;
15488;SDS011;7846;48.830;9.116;2022-09-09T04:20:51;1.30;;;0.80;;
15488;SDS011;7846;48.830;9.116;2022-09-09T04:23:17;2.27;;;0.87;;
15488;SDS011;7846;48.830;9.116;2022-09-09T04:25:45;2.63;;;0.83;;
15488;SDS011;7846;48.830;9.116;2022-09-09T04:28:13;1.87;;;0.70;;
15488;SDS011;7846;48.830;9.116;2022-09-09T04:30:40;0.80;;;0.70;;
15488;SDS011;7846;48.830;9.116;2022-09-09T04:33:07;1.80;;;0.80;;
15488;SDS011;7846;48.830;9.116;2022-09-09T04:35:34;3.87;;;0.93;;
15488;SDS011;7846;48.830;9.116;2022-09-09T04:38:01;2.60;;;0.90;;
15488;SDS011;7846;48.830;9.116;2022-09-09T04:40:27;2.33;;;0.80;;
15488;SDS011;7846;48.830;9.116;2022-09-09T04:42:54;1.87;;;0.90;;
15488;SDS011;7846;48.830;9.116;2022-09-09T04:45:21;1.93;;;0.80;;
15488;SDS011;7846;48.830;9.116;2022-09-09T04:47:47;4.33;;;1.00;;
15488;SDS011;7846;48.830;9.116;2022-09-09T04:50:14;1.37;;;0.80;;
15488;SDS011;7846;48.830;9.116;2022-09-09T04:52:40;3.90;;;1.00;;
15488;SDS011;7846;48.830;9.116;2022-09-09T04:55:06;3.37;;;0.83;;
15488;SDS011;7846;48.830;9.116;2022-09-09T04:57:32;4.50;;;0.90;;
15488;SDS011;7846;48.830;9.116;2022-09-09T04:59:59;3.23;;;1.00;;
15488;SDS011;7846;48.830;9.116;2022-09-09T05:02:25;1.80;;;0.90;;
15488;SDS011;7846;48.830;9.116;2022-09-09T05:04:51;2.77;;;1.17;;
15488;SDS011;7846;48.830;9.116;2022-09-09T05:07:18;2.27;;;0.97;;
15488;SDS011;7846;48.830;9.116;2022-09-09T05:09:44;2.03;;;1.00;;
15488;SDS011;7846;48.830;9.116;2022-09-09T05:12:10;2.43;;;0.90;;
15488;SDS011;7846;48.830;9.116;2022-09-09T05:14:37;1.70;;;0.80;;
15488;SDS011;7846;48.830;9.116;2022-09-09T05:17:03;3.30;;;1.00;;
15488;SDS011;7846;48.830;9.116;2022-09-09T05:19:28;1.50;;;1.03;;
15488;SDS011;7846;48.830;9.116;2022-09-09T05:21:56;1.40;;;0.80;;
15488;SDS011;7846;48.830;9.116;2022-09-09T05:24:22;1.70;;;0.83;;
15488;SDS011;7846;48.830;9.116;2022-09-09T05:26:48;2.80;;;0.80;;
15488;SDS011;7846;48.830;9.116;2022-09-09T05:29:14;2.37;;;1.00;;
15488;SDS011;7846;48.830;9.116;2022-09-09T05:31:44;4.40;;;1.27;;
15488;SDS011;7846;48.830;9.116;2022-09-09T05:34:09;1.53;;;0.83;;
15488;SDS011;7846;48.830;9.116;2022-09-09T05:36:34;2.73;;;0.90;;
15488;SDS011;7846;48.830;9.116;2022-09-09T05:39:00;1.93;;;0.90;;
15488;SDS011;7846;48.830;9.116;2022-09-09T05:41:26;3.87;;;1.03;;
15488;SDS011;7846;48.830;9.116;2022-09-09T05:43:53;3.20;;;1.20;;
15488;SDS011;7846;48.830;9.116;2022-09-09T05:46:21;1.80;;;1.10;;
15488;SDS011;7846;48.830;9.116;2022-09-09T05:48:48;4.00;;;1.10;;
15488;SDS011;7846;48.830;9.116;2022-09-09T05:51:17;1.73;;;1.07;;
15488;SDS011;7846;48.830;9.116;2022-09-09T05:53:45;4.20;;;1.20;;
15488;SDS011;7846;48.830;9.116;2022-09-09T05:56:13;3.67;;;0.90;;
15488;SDS011;7846;48.830;9.116;2022-09-09T05:58:42;1.97;;;0.90;;
15488;SDS011;7846;48.830;9.116;2022-09-09T06:01:10;1.23;;;0.87;;
15488;SDS011;7846;48.830;9.116;2022-09-09T06:03:39;2.30;;;1.00;;
15488;SDS011;7846;48.830;9.116;2022-09-09T06:06:08;2.73;;;1.00;;
15488;SDS011;7846;48.830;9.116;2022-09-09T06:08:42;3.37;;;0.93;;
15488;SDS011;7846;48.830;9.116;2022-09-09T06:11:16;2.50;;;0.90;;
15488;SDS011;7846;48.830;9.116;2022-09-09T06:13:50;2.43;;;0.90;;
15488;SDS011;7846;48.830;9.116;2022-09-09T06:16:19;2.97;;;0.90;;
15488;SDS011;7846;48.830;9.116;2022-09-09T06:18:53;2.60;;;1.07;;
15488;SDS011;7846;48.830;9.116;2022-09-09T06:21:26;4.30;;;0.97;;
15488;SDS011;7846;48.830;9.116;2022-09-09T06:23:54;2.03;;;0.90;;
15488;SDS011;7846;48.830;9.116;2022-09-09T06:26:58;3.20;;;0.90;;
15488;SDS011;7846;48.830;9.116;2022-09-09T06:29:42;1.63;;;0.83;;
15488;SDS011;7846;48.830;9.116;2022-09-09T06:32:08;2.30;;;1.00;;
15488;SDS011;7846;48.830;9.116;2022-09-09T06:34:33;1.40;;;0.90;;
15488;SDS011;7846;48.830;9.116;2022-09-09T06:37:00;2.67;;;1.00;;
15488;SDS011;7846;48.830;9.116;2022-09-09T06:39:26;3.00;;;1.10;;
15488;SDS011;7846;48.830;9.116;2022-09-09T06:41:52;2.83;;;1.10;;
15488;SDS011;7846;48.830;9.116;2022-09-09T06:44:18;4.50;;;1.37;;
15488;SDS011;7846;48.830;9.116;2022-09-09T06:46:46;3.10;;;1.07;;
15488;SDS011;7846;48.830;9.116;2022-09-09T06:49:13;2.80;;;1.10;;
15488;SDS011;7846;48.830;9.116;2022-09-09T06:51:38;2.73;;;1.10;;
15488;SDS011;7846;48.830;9.116;2022-09-09T06:54:08;2.37;;;1.03;;
15488;SDS011;7846;48.830;9.116;2022-09-09T06:59:56;4.00;;;1.20;;
15488;SDS011;7846;48.830;9.116;2022-09-09T07:02:22;3.93;;;1.37;;
15488;SDS011;7846;48.830;9.116;2022-09-09T07:04:47;1.20;;;1.10;;
15488;SDS011;7846;48.830;9.116;2022-09-09T07:07:16;3.40;;;1.13;;
15488;SDS011;7846;48.830;9.116;2022-09-09T07:09:42;2.10;;;1.10;;
15488;SDS011;7846;48.830;9.116;2022-09-09T07:12:08;2.23;;;1.00;;
15488;SDS011;7846;48.830;9.116;2022-09-09T07:14:34;3.33;;;1.10;;
15488;SDS011;7846;48.830;9.116;2022-09-09T07:17:04;1.60;;;1.13;;
15488;SDS011;7846;48.830;9.116;2022-09-09T07:19:29;2.13;;;1.10;;
15488;SDS011;7846;48.830;9.116;2022-09-09T07:21:54;2.20;;;1.20;;
15488;SDS011;7846;48.830;9.116;2022-09-09T07:24:21;2.97;;;1.43;;
15488;SDS011;7846;48.830;9.116;2022-09-09T07:26:46;2.07;;;1.23;;
15488;SDS011;7846;48.830;9.116;2022-09-09T07:29:12;2.80;;;1.30;;
15488;SDS011;7846;48.830;9.116;2022-09-09T07:31:42;2.67;;;1.17;;
15488;SDS011;7846;48.830;9.116;2022-09-09T07:34:08;3.47;;;1.13;;
15488;SDS011;7846;48.830;9.116;2022-09-09T07:36:36;2.60;;;1.00;;
15488;SDS011;7846;48.830;9.116;2022-09-09T07:39:07;4.70;;;1.10;;
15488;SDS011;7846;48.830;9.116;2022-09-09T07:41:39;4.33;;;1.50;;
15488;SDS011;7846;48.830;9.116;2022-09-09T07:44:09;2.93;;;1.13;;
15488;SDS011;7846;48.830;9.116;2022-09-09T07:46:37;4.00;;;1.10;;
15488;SDS011;7846;48.830;9.116;2022-09-09T07:49:07;4.60;;;1.20;;
15488;SDS011;7846;48.830;9.116;2022-09-09T07:51:43;4.07;;;1.30;;
15488;SDS011;7846;48.830;9.116;2022-09-09T07:54:12;2.83;;;1.10;;
15488;SDS011;7846;48.830;9.116;2022-09-09T07:56:40;1.83;;;1.00;;
15488;SDS011;7846;48.830;9.116;2022-09-09T07:59:07;2.73;;;1.10;;
15488;SDS011;7846;48.830;9.116;2022-09-09T08:01:35;4.83;;;1.20;;
15488;SDS011;7846;48.830;9.116;2022-09-09T08:04:05;2.37;;;1.00;;
15488;SDS011;7846;48.830;9.116;2022-09-09T08:06:38;1.73;;;0.90;;
15488;SDS011;7846;48.830;9.116;2022-09-09T08:09:05;4.00;;;1.20;;
15488;SDS011;7846;48.830;9.116;2022-09-09T08:11:35;4.37;;;1.00;;
15488;SDS011;7846;48.830;9.116;2022-09-09T08:14:01;2.70;;;1.10;;
15488;SDS011;7846;48.830;9.116;2022-09-09T08:16:28;6.60;;;1.20;;
15488;SDS011;7846;48.830;9.116;2022-09-09T08:18:57;5.93;;;1.37;;
15488;SDS011;7846;48.830;9.116;2022-09-09T08:21:24;2.03;;;0.90;;
15488;SDS011;7846;48.830;9.116;2022-09-09T08:23:56;3.23;;;1.13;;
15488;SDS011;7846;48.830;9.116;2022-09-09T08:26:30;3.43;;;1.10;;
15488;SDS011;7846;48.830;9.116;2022-09-09T08:28:58;3.37;;;1.20;;
15488;SDS011;7846;48.830;9.116;2022-09-09T08:31:25;3.40;;;1.03;;
15488;SDS011;7846;48.830;9.116;2022-09-09T08:33:56;3.93;;;1.00;;
15488;SDS011;7846;48.830;9.116;2022-09-09T08:36:25;5.27;;;1.10;;
15488;SDS011;7846;48.830;9.116;2022-09-09T08:38:53;2.40;;;0.90;;
15488;SDS011;7846;48.830;9.116;2022-09-09T08:44:14;1.80;;;0.90;;
15488;SDS011;7846;48.830;9.116;2022-09-09T08:55:48;3.37;;;0.90;;
15488;SDS011;7846;48.830;9.116;2022-09-09T08:58:20;3.00;;;0.80;;
15488;SDS011;7846;48.830;9.116;2022-09-09T09:03:48;3.20;;;0.87;;
15488;SDS011;7846;48.830;9.116;2022-09-09T09:06:46;1.80;;;0.80;;
15488;SDS011;7846;48.830;9.116;2022-09-09T09:12:16;2.07;;;0.90;;
15488;SDS011;7846;48.830;9.116;2022-09-09T09:14:46;1.90;;;1.10;;
15488;SDS011;7846;48.830;9.116;2022-09-09T09:17:19;2.83;;;1.10;;
15488;SDS011;7846;48.830;9.116;2022-09-09T09:19:47;1.60;;;0.90;;
15488;SDS011;7846;48.830;9.116;2022-09-09T09:30:54;4.50;;;1.23;;
15488;SDS011;7846;48.830;9.116;2022-09-09T09:36:14;1.57;;;1.00;;
15488;SDS011;7846;48.830;9.116;2022-09-09T09:38:51;1.70;;;0.90;;
15488;SDS011;7846;48.830;9.116;2022-09-09T09:43:57;3.90;;;1.00;;
15488;SDS011;7846;48.830;9.116;2022-09-09T09:46:25;2.17;;;0.80;;
15488;SDS011;7846;48.830;9.116;2022-09-09T09:49:01;1.00;;;0.80;;
15488;SDS011;7846;48.830;9.116;2022-09-09T09:51:31;2.20;;;0.90;;
15488;SDS011;7846;48.830;9.116;2022-09-09T09:56:38;2.13;;;0.90;;
15488;SDS011;7846;48.830;9.116;2022-09-09T09:59:05;0.80;;;0.67;;
15488;SDS011;7846;48.830;9.116;2022-09-09T10:01:44;2.20;;;0.73;;
15488;SDS011;7846;48.830;9.116;2022-09-09T10:04:14;4.07;;;0.60;;
15488;SDS011;7846;48.830;9.116;2022-09-09T10:06:43;3.33;;;0.87;;
15488;SDS011;7846;48.830;9.116;2022-09-09T10:09:29;1.83;;;0.80;;
15488;SDS011;7846;48.830;9.116;2022-09-09T10:14:55;1.73;;;0.90;;
15488;SDS011;7846;48.830;9.116;2022-09-09T10:17:48;2.97;;;1.00;;
15488;SDS011;7846;48.830;9.116;2022-09-09T10:26:08;2.80;;;1.03;;
15488;SDS011;7846;48.830;9.116;2022-09-09T10:29:21;1.53;;;0.90;;
15488;SDS011;7846;48.830;9.116;2022-09-09T10:34:23;3.33;;;0.90;;
15488;SDS011;7846;48.830;9.116;2022-09-09T10:37:35;3.10;;;1.00;;
15488;SDS011;7846;48.830;9.116;2022-09-09T10:40:17;2.43;;;0.93;;
15488;SDS011;7846;48.830;9.116;2022-09-09T10:42:45;3.67;;;1.13;;
15488;SDS011;7846;48.830;9.116;2022-09-09T10:54:10;4.07;;;1.00;;
15488;SDS011;7846;48.830;9.116;2022-09-09T10:56:42;1.93;;;0.90;;
15488;SDS011;7846;48.830;9.116;2022-09-09T11:01:44;2.87;;;1.00;;
15488;SDS011;7846;48.830;9.116;2022-09-09T11:04:17;2.40;;;0.83;;
15488;SDS011;7846;48.830;9.116;2022-09-09T11:06:55;3.90;;;1.13;;
15488;SDS011;7846;48.830;9.116;2022-09-09T11:11:55;6.33;;;1.50;;
15488;SDS011;7846;48.830;9.116;2022-09-09T11:14:29;5.73;;;1.50;;
15488;SDS011;7846;48.830;9.116;2022-09-09T11:17:18;10.33;;;1.93;;
15488;SDS011;7846;48.830;9.116;2022-09-09T11:19:49;2.37;;;1.10;;
15488;SDS011;7846;48.830;9.116;2022-09-09T11:22:16;3.87;;;1.30;;
15488;SDS011;7846;48.830;9.116;2022-09-09T11:25:05;3.20;;;1.20;;
15488;SDS011;7846;48.830;9.116;2022-09-09T11:27:32;2.20;;;1.00;;
15488;SDS011;7846;48.830;9.116;2022-09-09T11:30:15;1.67;;;0.80;;
15488;SDS011;7846;48.830;9.116;2022-09-09T11:35:52;1.40;;;0.73;;
15488;SDS011;7846;48.830;9.116;2022-09-09T11:38:29;1.20;;;0.83;;
15488;SDS011;7846;48.830;9.116;2022-09-09T11:41:05;1.63;;;0.60;;
15488;SDS011;7846;48.830;9.116;2022-09-09T11:43:41;1.70;;;0.60;;
15488;SDS011;7846;48.830;9.116;2022-09-09T11:46:09;1.10;;;0.77;;
15488;SDS011;7846;48.830;9.116;2022-09-09T11:48:37;1.87;;;0.60;;
15488;SDS011;7846;48.830;9.116;2022-09-09T11:58:56;0.97;;;0.60;;
15488;SDS011;7846;48.830;9.116;2022-09-09T12:06:52;0.87;;;0.50;;
15488;SDS011;7846;48.830;9.116;2022-09-09T12:09:41;0.53;;;0.50;;
15488;SDS011;7846;48.830;9.116;2022-09-09T12:12:35;0.87;;;0.60;;
15488;SDS011;7846;48.830;9.116;2022-09-09T12:17:53;2.40;;;0.67;;
15488;SDS011;7846;48.830;9.116;2022-09-09T12:20:23;2.23;;;0.80;;
15488;SDS011;7846;48.830;9.116;2022-09-09T12:25:58;1.03;;;0.40;;
15488;SDS011;7846;48.830;9.116;2022-09-09T12:31:36;1.63;;;0.60;;
15488;SDS011;7846;48.830;9.116;2022-09-09T12:34:06;0.40;;;0.40;;
15488;SDS011;7846;48.830;9.116;2022-09-09T12:36:40;1.33;;;0.70;;
15488;SDS011;7846;48.830;9.116;2022-09-09T12:39:33;1.33;;;0.60;;
15488;SDS011;7846;48.830;9.116;2022-09-09T12:42:00;0.97;;;0.63;;
15488;SDS011;7846;48.830;9.116;2022-09-09T12:44:28;1.23;;;0.63;;
15488;SDS011;7846;48.830;9.116;2022-09-09T12:46:54;2.57;;;0.87;;
15488;SDS011;7846;48.830;9.116;2022-09-09T12:52:12;1.17;;;0.60;;
15488;SDS011;7846;48.830;9.116;2022-09-09T12:54:49;2.23;;;0.70;;
15488;SDS011;7846;48.830;9.116;2022-09-09T12:57:18;0.57;;;0.50;;
15488;SDS011;7846;48.830;9.116;2022-09-09T12:59:47;1.40;;;0.67;;
15488;SDS011;7846;48.830;9.116;2022-09-09T13:02:17;1.33;;;0.73;;
15488;SDS011;7846;48.830;9.116;2022-09-09T13:04:43;1.70;;;0.70;;
15488;SDS011;7846;48.830;9.116;2022-09-09T13:07:10;0.70;;;0.70;;
15488;SDS011;7846;48.830;9.116;2022-09-09T13:09:38;1.17;;;0.60;;
15488;SDS011;7846;48.830;9.116;2022-09-09T13:12:03;1.90;;;0.80;;
15488;SDS011;7846;48.830;9.116;2022-09-09T13:14:33;0.87;;;0.60;;
15488;SDS011;7846;48.830;9.116;2022-09-09T13:17:03;1.97;;;0.90;;
15488;SDS011;7846;48.830;9.116;2022-09-09T13:19:32;0.93;;;0.50;;
15488;SDS011;7846;48.830;9.116;2022-09-09T13:22:11;2.70;;;0.70;;
15488;SDS011;7846;48.830;9.116;2022-09-09T13:24:38;0.93;;;0.60;;
15488;SDS011;7846;48.830;9.116;2022-09-09T13:27:05;0.93;;;0.77;;
15488;SDS011;7846;48.830;9.116;2022-09-09T13:29:53;1.37;;;0.60;;
15488;SDS011;7846;48.830;9.116;2022-09-09T13:32:23;2.00;;;0.70;;
15488;SDS011;7846;48.830;9.116;2022-09-09T13:34:59;2.43;;;0.60;;
15488;SDS011;7846;48.830;9.116;2022-09-09T13:37:33;1.10;;;0.60;;
15488;SDS011;7846;48.830;9.116;2022-09-09T13:40:05;1.63;;;0.80;;
15488;SDS011;7846;48.830;9.116;2022-09-09T13:42:32;1.70;;;0.77;;
15488;SDS011;7846;48.830;9.116;2022-09-09T13:45:05;1.23;;;0.57;;
15488;SDS011;7846;48.830;9.116;2022-09-09T13:47:34;1.77;;;0.77;;
15488;SDS011;7846;48.830;9.116;2022-09-09T13:52:57;2.97;;;0.60;;
15488;SDS011;7846;48.830;9.116;2022-09-09T13:55:24;1.73;;;0.60;;
15488;SDS011;7846;48.830;9.116;2022-09-09T14:00:29;1.20;;;0.60;;
15488;SDS011;7846;48.830;9.116;2022-09-09T14:02:56;1.60;;;0.70;;
15488;SDS011;7846;48.830;9.116;2022-09-09T14:05:21;2.13;;;0.73;;
15488;SDS011;7846;48.830;9.116;2022-09-09T14:07:47;3.33;;;0.80;;
15488;SDS011;7846;48.830;9.116;2022-09-09T14:10:13;1.43;;;0.90;;
15488;SDS011;7846;48.830;9.116;2022-09-09T14:12:40;0.90;;;0.53;;
15488;SDS011;7846;48.830;9.116;2022-09-09T14:15:07;2.27;;;0.60;;
15488;SDS011;7846;48.830;9.116;2022-09-09T14:17:35;1.80;;;0.57;;
15488;SDS011;7846;48.830;9.116;2022-09-09T14:20:02;0.87;;;0.60;;
15488;SDS011;7846;48.830;9.116;2022-09-09T14:22:32;0.80;;;0.50;;
15488;SDS011;7846;48.830;9.116;2022-09-09T14:24:59;1.17;;;0.53;;
15488;SDS011;7846;48.830;9.116;2022-09-09T14:27:25;1.73;;;0.70;;
15488;SDS011;7846;48.830;9.116;2022-09-09T14:29:55;0.83;;;0.60;;
15488;SDS011;7846;48.830;9.116;2022-09-09T14:32:20;1.10;;;0.63;;
15488;SDS011;7846;48.830;9.116;2022-09-09T14:34:46;0.80;;;0.50;;
15488;SDS011;7846;48.830;9.116;2022-09-09T14:37:15;1.37;;;0.67;;
15488;SDS011;7846;48.830;9.116;2022-09-09T14:39:41;2.07;;;0.67;;
15488;SDS011;7846;48.830;9.116;2022-09-09T14:42:09;0.50;;;0.50;;
15488;SDS011;7846;48.830;9.116;2022-09-09T14:44:36;0.87;;;0.60;;
15488;SDS011;7846;48.830;9.116;2022-09-09T14:47:05;1.23;;;0.57;;
15488;SDS011;7846;48.830;9.116;2022-09-09T14:49:30;1.50;;;0.57;;
15488;SDS011;7846;48.830;9.116;2022-09-09T14:51:56;3.43;;;0.60;;
15488;SDS011;7846;48.830;9.116;2022-09-09T14:54:21;2.00;;;0.70;;
15488;SDS011;7846;48.830;9.116;2022-09-09T14:56:48;1.10;;;0.60;;
15488;SDS011;7846;48.830;9.116;2022-09-09T14:59:14;1.40;;;0.70;;
15488;SDS011;7846;48.830;9.116;2022-09-09T15:01:40;1.40;;;0.60;;
15488;SDS011;7846;48.830;9.116;2022-09-09T15:04:06;1.80;;;0.50;;
15488;SDS011;7846;48.830;9.116;2022-09-09T15:06:34;0.93;;;0.50;;
15488;SDS011;7846;48.830;9.116;2022-09-09T15:09:02;1.47;;;0.50;;
15488;SDS011;7846;48.830;9.116;2022-09-09T15:11:28;0.53;;;0.50;;
15488;SDS011;7846;48.830;9.116;2022-09-09T15:13:58;0.43;;;0.40;;
15488;SDS011;7846;48.830;9.116;2022-09-09T15:16:27;1.10;;;0.50;;
15488;SDS011;7846;48.830;9.116;2022-09-09T15:18:54;1.27;;;0.40;;
15488;SDS011;7846;48.830;9.116;2022-09-09T15:21:24;1.07;;;0.40;;
15488;SDS011;7846;48.830;9.116;2022-09-09T15:23:51;1.37;;;0.53;;
15488;SDS011;7846;48.830;9.116;2022-09-09T15:26:21;1.73;;;0.53;;
15488;SDS011;7846;48.830;9.116;2022-09-09T15:28:46;2.30;;;0.60;;
15488;SDS011;7846;48.830;9.116;2022-09-09T15:33:54;1.57;;;0.60;;
15488;SDS011;7846;48.830;9.116;2022-09-09T15:36:32;1.93;;;0.70;;
15488;SDS011;7846;48.830;9.116;2022-09-09T15:39:02;1.07;;;0.53;;
15488;SDS011;7846;48.830;9.116;2022-09-09T15:41:29;2.17;;;0.63;;
15488;SDS011;7846;48.830;9.116;2022-09-09T15:43:56;0.87;;;0.50;;
15488;SDS011;7846;48.830;9.116;2022-09-09T15:49:05;2.43;;;0.70;;
15488;SDS011;7846;48.830;9.116;2022-09-09T15:51:34;0.77;;;0.53;;
15488;SDS011;7846;48.830;9.116;2022-09-09T15:54:01;2.53;;;0.77;;
15488;SDS011;7846;48.830;9.116;2022-09-09T15:56:28;1.07;;;0.70;;
15488;SDS011;7846;48.830;9.116;2022-09-09T15:58:55;1.80;;;0.70;;
15488;SDS011;7846;48.830;9.116;2022-09-09T16:01:23;2.10;;;0.60;;
15488;SDS011;7846;48.830;9.116;2022-09-09T16:03:53;2.93;;;0.77;;
15488;SDS011;7846;48.830;9.116;2022-09-09T16:06:19;1.07;;;0.70;;
15488;SDS011;7846;48.830;9.116;2022-09-09T16:08:47;2.77;;;0.90;;
15488;SDS011;7846;48.830;9.116;2022-09-09T16:11:25;2.40;;;0.90;;
15488;SDS011;7846;48.830;9.116;2022-09-09T16:13:53;1.87;;;0.73;;
15488;SDS011;7846;48.830;9.116;2022-09-09T16:16:21;1.17;;;0.80;;
15488;SDS011;7846;48.830;9.116;2022-09-09T16:18:50;2.07;;;0.80;;
15488;SDS011;7846;48.830;9.116;2022-09-09T16:21:21;2.77;;;0.73;;
15488;SDS011;7846;48.830;9.116;2022-09-09T16:23:52;0.70;;;0.30;;
15488;SDS011;7846;48.830;9.116;2022-09-09T16:26:21;1.13;;;0.20;;
15488;SDS011;7846;48.830;9.116;2022-09-09T16:28:47;0.40;;;0.20;;
15488;SDS011;7846;48.830;9.116;2022-09-09T16:31:18;2.37;;;0.30;;
15488;SDS011;7846;48.830;9.116;2022-09-09T16:33:45;2.10;;;0.90;;
15488;SDS011;7846;48.830;9.116;2022-09-09T16:36:15;0.83;;;0.30;;
15488;SDS011;7846;48.830;9.116;2022-09-09T16:38:42;0.70;;;0.70;;
15488;SDS011;7846;48.830;9.116;2022-09-09T16:41:08;0.50;;;0.33;;
15488;SDS011;7846;48.830;9.116;2022-09-09T16:43:35;0.40;;;0.40;;
15488;SDS011;7846;48.830;9.116;2022-09-09T16:46:02;0.43;;;0.30;;
15488;SDS011;7846;48.830;9.116;2022-09-09T16:48:41;0.30;;;0.30;;
15488;SDS011;7846;48.830;9.116;2022-09-09T16:51:13;1.47;;;0.30;;
15488;SDS011;7846;48.830;9.116;2022-09-09T16:53:44;2.53;;;0.43;;
15488;SDS011;7846;48.830;9.116;2022-09-09T16:56:12;1.17;;;0.50;;
15488;SDS011;7846;48.830;9.116;2022-09-09T16:58:39;0.57;;;0.30;;
15488;SDS011;7846;48.830;9.116;2022-09-09T17:01:05;0.30;;;0.30;;
15488;SDS011;7846;48.830;9.116;2022-09-09T17:03:31;3.17;;;0.40;;
15488;SDS011;7846;48.830;9.116;2022-09-09T17:05:58;1.07;;;0.20;;
15488;SDS011;7846;48.830;9.116;2022-09-09T17:08:30;0.90;;;0.47;;
15488;SDS011;7846;48.830;9.116;2022-09-09T17:10:56;0.90;;;0.40;;
15488;SDS011;7846;48.830;9.116;2022-09-09T17:13:22;1.27;;;0.30;;
15488;SDS011;7846;48.830;9.116;2022-09-09T17:15:48;1.90;;;0.43;;
15488;SDS011;7846;48.830;9.116;2022-09-09T17:18:14;0.30;;;0.30;;
15488;SDS011;7846;48.830;9.116;2022-09-09T17:20:39;0.30;;;0.30;;
15488;SDS011;7846;48.830;9.116;2022-09-09T17:23:06;1.43;;;0.60;;
15488;SDS011;7846;48.830;9.116;2022-09-09T17:25:36;2.17;;;0.80;;
15488;SDS011;7846;48.830;9.116;2022-09-09T17:28:02;0.67;;;0.50;;
15488;SDS011;7846;48.830;9.116;2022-09-09T17:30:34;2.57;;;0.77;;
15488;SDS011;7846;48.830;9.116;2022-09-09T17:33:01;0.70;;;0.60;;
15488;SDS011;7846;48.830;9.116;2022-09-09T17:35:28;1.63;;;0.60;;
15488;SDS011;7846;48.830;9.116;2022-09-09T17:37:56;1.90;;;0.80;;